createdAt,value
2018-01-22T00:00:11.172Z,1.80
2018-01-22T00:02:38.687Z,1.80
2018-01-22T00:05:06.178Z,1.80
2018-01-22T00:07:33.654Z,1.80
2018-01-22T00:10:01.638Z,1.70
2018-01-22T00:12:29.101Z,1.70
2018-01-22T00:14:56.613Z,1.60
2018-01-22T00:17:29.129Z,1.60
2018-01-22T00:19:56.863Z,1.60
2018-01-22T00:22:24.357Z,1.50
2018-01-22T00:24:51.966Z,1.50
2018-01-22T00:27:20.273Z,1.60
2018-01-22T00:29:47.845Z,1.60
2018-01-22T00:32:15.326Z,1.70
2018-01-22T00:34:42.798Z,1.70
2018-01-22T00:37:10.291Z,1.70
2018-01-22T00:39:37.762Z,1.80
2018-01-22T00:42:05.256Z,1.80
2018-01-22T00:44:32.841Z,1.70
2018-01-22T00:47:01.137Z,1.70
2018-01-22T00:49:28.826Z,1.70
2018-01-22T00:51:56.305Z,1.80
2018-01-22T00:54:23.845Z,1.80
2018-01-22T00:56:51.536Z,1.70
2018-01-22T00:59:19.015Z,1.60
2018-01-22T01:01:46.519Z,1.60
2018-01-22T01:04:13.997Z,1.70
2018-01-22T01:06:41.494Z,1.70
2018-01-22T01:09:08.954Z,1.70
2018-01-22T01:11:36.517Z,1.70
2018-01-22T01:14:04.013Z,1.70
2018-01-22T01:16:31.500Z,1.60
2018-01-22T01:18:58.978Z,1.60
2018-01-22T01:21:27.241Z,1.50
2018-01-22T01:23:54.761Z,1.50
2018-01-22T01:26:22.274Z,1.60
2018-01-22T01:28:49.752Z,1.60
2018-01-22T01:31:17.246Z,1.50
2018-01-22T01:33:44.787Z,1.60
2018-01-22T01:36:12.249Z,1.60
2018-01-22T01:38:39.723Z,1.60
2018-01-22T01:41:07.201Z,1.70
2018-01-22T01:43:34.681Z,1.60
2018-01-22T01:46:02.176Z,1.70
2018-01-22T01:48:29.647Z,1.70
2018-01-22T01:50:57.125Z,1.70
2018-01-22T01:53:24.629Z,1.70
2018-01-22T01:55:52.143Z,1.60
2018-01-22T01:58:19.825Z,1.60
2018-01-22T02:00:48.114Z,1.80
2018-01-22T02:03:16.341Z,1.80
2018-01-22T02:05:43.845Z,1.80
2018-01-22T02:08:11.311Z,1.80
2018-01-22T02:10:38.883Z,1.90
2018-01-22T02:13:06.340Z,1.80
2018-01-22T02:15:33.809Z,1.80
2018-01-22T02:18:01.384Z,1.90
2018-01-22T02:20:28.886Z,1.90
2018-01-22T02:22:56.373Z,1.90
2018-01-22T02:25:23.861Z,1.90
2018-01-22T02:27:51.401Z,1.90
2018-01-22T02:30:18.877Z,1.90
2018-01-22T02:32:46.349Z,1.90
2018-01-22T02:35:13.833Z,1.90
2018-01-22T02:37:42.060Z,1.90
2018-01-22T02:40:09.546Z,1.80
2018-01-22T02:42:37.052Z,1.80
2018-01-22T02:45:04.549Z,1.80
2018-01-22T02:47:32.009Z,1.80
2018-01-22T02:49:59.477Z,1.80
2018-01-22T02:52:27.882Z,1.90
2018-01-22T02:54:55.354Z,1.80
2018-01-22T02:57:22.842Z,1.80
2018-01-22T02:59:50.301Z,1.80
2018-01-22T03:02:17.777Z,1.90
2018-01-22T03:04:45.238Z,1.80
2018-01-22T03:07:13.489Z,1.80
2018-01-22T03:09:40.976Z,1.80
2018-01-22T03:12:08.688Z,1.80
2018-01-22T03:14:36.341Z,1.80
2018-01-22T03:17:03.921Z,1.80
2018-01-22T03:19:44.813Z,1.80
2018-01-22T03:22:12.275Z,1.80
2018-01-22T03:24:39.967Z,1.80
2018-01-22T03:27:08.201Z,1.90
2018-01-22T03:29:35.700Z,1.80
2018-01-22T03:32:03.182Z,1.80
2018-01-22T03:34:31.432Z,1.90
2018-01-22T03:36:58.931Z,1.90
2018-01-22T03:39:26.410Z,1.80
2018-01-22T03:41:53.893Z,1.80
2018-01-22T03:44:22.149Z,1.80
2018-01-22T03:46:49.638Z,1.80
2018-01-22T03:49:17.116Z,1.80
2018-01-22T03:51:44.586Z,1.80
2018-01-22T03:54:12.069Z,1.80
2018-01-22T03:56:39.546Z,1.70
2018-01-22T03:59:07.072Z,1.70
2018-01-22T04:01:34.570Z,1.70
2018-01-22T04:04:02.040Z,1.70
2018-01-22T04:06:29.506Z,1.70
2018-01-22T04:08:56.992Z,1.80
2018-01-22T04:11:24.516Z,1.80
2018-01-22T04:13:51.982Z,1.80
2018-01-22T04:16:19.480Z,1.80
2018-01-22T04:18:46.962Z,1.80
2018-01-22T04:21:14.453Z,2.00
2018-01-22T04:23:41.958Z,2.10
2018-01-22T04:26:09.434Z,2.10
2018-01-22T04:28:36.946Z,2.10
2018-01-22T04:31:04.409Z,2.10
2018-01-22T04:33:31.891Z,2.10
2018-01-22T04:35:59.352Z,2.10
2018-01-22T04:38:26.829Z,2.00
2018-01-22T04:40:55.144Z,2.10
2018-01-22T04:43:22.653Z,2.10
2018-01-22T04:45:50.113Z,2.10
2018-01-22T04:48:17.595Z,2.10
2018-01-22T04:50:45.056Z,2.10
2018-01-22T04:53:12.570Z,2.00
2018-01-22T04:55:40.068Z,2.10
2018-01-22T04:58:07.557Z,2.00
2018-01-22T05:00:35.078Z,2.00
2018-01-22T05:03:03.165Z,2.00
2018-01-22T05:05:30.690Z,2.00
2018-01-22T05:07:58.162Z,1.90
2018-01-22T05:10:25.662Z,1.90
2018-01-22T05:12:53.246Z,2.00
2018-01-22T05:15:20.792Z,2.00
2018-01-22T05:17:48.293Z,2.00
2018-01-22T05:20:15.778Z,2.00
2018-01-22T05:22:43.283Z,2.00
2018-01-22T05:25:10.822Z,2.00
2018-01-22T05:27:38.323Z,2.00
2018-01-22T05:30:06.565Z,2.10
2018-01-22T05:32:34.073Z,2.10
2018-01-22T05:35:01.563Z,2.10
2018-01-22T05:37:29.061Z,2.00
2018-01-22T05:39:56.610Z,2.00
2018-01-22T05:42:24.069Z,1.90
2018-01-22T05:44:51.951Z,2.00
2018-01-22T05:47:19.475Z,2.00
2018-01-22T05:49:46.956Z,2.00
2018-01-22T05:52:14.425Z,1.90
2018-01-22T05:54:42.671Z,1.80
2018-01-22T05:57:10.479Z,1.80
2018-01-22T05:59:37.943Z,1.80
2018-01-22T06:02:06.162Z,1.80
2018-01-22T06:04:33.654Z,1.70
2018-01-22T06:07:01.145Z,1.70
2018-01-22T06:09:28.852Z,1.70
2018-01-22T06:11:56.314Z,1.70
2018-01-22T06:14:23.778Z,1.70
2018-01-22T06:16:52.025Z,1.70
2018-01-22T06:19:19.526Z,1.60
2018-01-22T06:21:47.843Z,1.70
2018-01-22T06:24:15.325Z,1.70
2018-01-22T06:26:42.826Z,1.70
2018-01-22T06:29:10.277Z,1.70
2018-01-22T06:31:37.756Z,1.70
2018-01-22T06:34:05.235Z,1.70
2018-01-22T06:36:33.765Z,1.80
2018-01-22T06:39:01.638Z,1.80
2018-01-22T06:41:30.009Z,1.80
2018-01-22T06:43:57.469Z,1.80
2018-01-22T06:46:24.942Z,1.80
2018-01-22T06:48:52.426Z,1.80
2018-01-22T06:51:19.934Z,1.80
2018-01-22T06:53:47.402Z,1.80
2018-01-22T06:56:15.688Z,1.90
2018-01-22T06:58:43.187Z,1.80
2018-01-22T07:01:10.665Z,1.80
2018-01-22T07:03:38.127Z,1.80
2018-01-22T07:06:05.609Z,1.80
2018-01-22T07:08:33.102Z,1.80
2018-01-22T07:11:00.585Z,1.70
2018-01-22T07:13:28.049Z,1.70
2018-01-22T07:15:55.531Z,1.70
2018-01-22T07:18:24.021Z,1.70
2018-01-22T07:20:51.536Z,1.70
2018-01-22T07:23:19.047Z,1.70
2018-01-22T07:25:46.518Z,1.60
2018-01-22T07:28:14.038Z,1.60
2018-01-22T07:30:41.517Z,1.60
2018-01-22T07:33:08.982Z,1.60
2018-01-22T07:35:36.456Z,1.60
2018-01-22T07:38:04.501Z,1.60
2018-01-22T07:40:31.962Z,1.60
2018-01-22T07:42:59.464Z,1.70
2018-01-22T07:45:26.954Z,1.70
2018-01-22T07:47:54.438Z,1.70
2018-01-22T07:50:21.918Z,1.70
2018-01-22T07:52:49.487Z,1.70
2018-01-22T07:55:16.972Z,1.70
2018-01-22T07:57:44.532Z,1.80
2018-01-22T08:00:12.235Z,1.80
2018-01-22T08:02:39.689Z,1.80
2018-01-22T08:05:07.142Z,1.90
2018-01-22T08:07:34.613Z,1.90
2018-01-22T08:10:02.055Z,1.90
2018-01-22T08:12:39.700Z,1.90
2018-01-22T08:15:07.499Z,1.90
2018-01-22T08:17:35.778Z,1.90
2018-01-22T08:20:03.239Z,1.90
2018-01-22T08:22:31.477Z,2.00
2018-01-22T08:24:58.961Z,1.90
2018-01-22T08:27:27.182Z,1.90
2018-01-22T08:29:54.639Z,1.90
2018-01-22T08:32:22.104Z,1.90
2018-01-22T08:34:49.607Z,1.90
2018-01-22T08:37:17.850Z,2.00
2018-01-22T08:39:45.297Z,2.00
2018-01-22T08:42:12.837Z,2.00
2018-01-22T08:44:40.305Z,2.10
2018-01-22T08:47:07.778Z,2.10
2018-01-22T08:49:35.245Z,2.00
2018-01-22T08:52:02.702Z,2.00
2018-01-22T08:54:30.159Z,2.20
2018-01-22T08:56:57.630Z,2.10
2018-01-22T08:59:25.082Z,2.10
2018-01-22T09:01:52.545Z,2.20
2018-01-22T09:04:20.014Z,2.10
2018-01-22T09:06:48.249Z,2.20
2018-01-22T09:09:15.724Z,2.20
2018-01-22T09:11:43.184Z,2.20
2018-01-22T09:14:10.645Z,2.20
2018-01-22T09:16:38.089Z,2.20
2018-01-22T09:19:05.544Z,2.20
2018-01-22T09:21:33.023Z,2.20
2018-01-22T09:24:00.489Z,2.30
2018-01-22T09:26:27.943Z,2.30
2018-01-22T09:28:55.418Z,2.20
2018-01-22T09:31:22.905Z,2.20
2018-01-22T09:33:50.361Z,2.20
2018-01-22T09:36:17.886Z,2.20
2018-01-22T09:38:45.361Z,2.30
2018-01-22T09:41:12.820Z,2.20
2018-01-22T09:43:40.317Z,2.20
2018-01-22T09:46:07.805Z,2.30
2018-01-22T09:48:36.049Z,2.40
2018-01-22T09:51:03.513Z,2.40
2018-01-22T09:53:30.967Z,2.40
2018-01-22T09:55:58.437Z,2.40
2018-01-22T09:58:26.685Z,2.50
2018-01-22T10:00:54.141Z,2.40
2018-01-22T10:03:21.597Z,2.50
2018-01-22T10:05:49.067Z,2.50
2018-01-22T10:08:16.522Z,2.50
2018-01-22T10:10:43.984Z,2.50
2018-01-22T10:13:11.449Z,2.40
2018-01-22T10:15:38.917Z,2.40
2018-01-22T10:18:07.142Z,2.40
2018-01-22T10:20:34.620Z,2.40
2018-01-22T10:23:02.083Z,2.50
2018-01-22T10:25:29.543Z,2.50
2018-01-22T10:27:57.014Z,2.50
2018-01-22T10:30:24.472Z,2.50
2018-01-22T10:32:51.925Z,2.50
2018-01-22T10:35:19.398Z,2.50
2018-01-22T10:37:46.857Z,2.50
2018-01-22T10:40:15.090Z,2.40
2018-01-22T10:42:42.545Z,2.40
2018-01-22T10:45:10.013Z,2.40
2018-01-22T10:47:37.479Z,2.50
2018-01-22T10:50:04.949Z,2.60
2018-01-22T10:52:32.405Z,2.60
2018-01-22T10:55:00.629Z,2.50
2018-01-22T10:57:28.128Z,2.60
2018-01-22T10:59:55.624Z,2.60
2018-01-22T11:02:23.117Z,2.50
2018-01-22T11:04:50.643Z,2.50
2018-01-22T11:07:18.049Z,2.60
2018-01-22T11:09:45.516Z,2.70
2018-01-22T11:12:12.961Z,2.60
2018-01-22T11:14:40.426Z,2.60
2018-01-22T11:17:07.905Z,2.60
2018-01-22T11:19:36.141Z,2.50
2018-01-22T11:22:03.610Z,2.50
2018-01-22T11:24:31.077Z,2.50
2018-01-22T11:26:58.532Z,2.40
2018-01-22T11:29:27.959Z,2.40
2018-01-22T11:31:55.669Z,2.40
2018-01-22T11:34:23.950Z,2.50
2018-01-22T11:36:51.407Z,2.50
2018-01-22T11:39:18.871Z,2.60
2018-01-22T11:41:46.380Z,2.60
2018-01-22T11:44:13.833Z,2.60
2018-01-22T11:46:41.295Z,2.70
2018-01-22T11:49:08.744Z,2.70
2018-01-22T11:51:36.229Z,2.70
2018-01-22T11:54:03.694Z,2.70
2018-01-22T11:56:31.206Z,2.70
2018-01-22T11:58:58.675Z,2.80
2018-01-22T12:01:26.191Z,2.90
2018-01-22T12:03:53.666Z,2.90
2018-01-22T12:06:21.953Z,2.90
2018-01-22T12:08:49.386Z,2.80
2018-01-22T12:11:17.453Z,2.90
2018-01-22T12:13:44.912Z,2.90
2018-01-22T12:16:12.382Z,3.00
2018-01-22T12:18:40.639Z,2.90
2018-01-22T12:21:08.262Z,2.90
2018-01-22T12:23:35.966Z,2.90
2018-01-22T12:26:03.480Z,2.90
2018-01-22T12:28:30.974Z,2.80
2018-01-22T12:30:58.463Z,2.90
2018-01-22T12:33:26.680Z,2.90
2018-01-22T12:35:54.145Z,2.90
2018-01-22T12:38:21.612Z,3.00
2018-01-22T12:40:49.093Z,3.00
2018-01-22T12:43:16.568Z,2.90
2018-01-22T12:45:44.279Z,2.90
2018-01-22T12:48:11.757Z,2.90
2018-01-22T12:50:39.198Z,2.90
2018-01-22T12:53:06.669Z,2.90
2018-01-22T12:55:34.353Z,2.90
2018-01-22T12:58:03.026Z,3.00
2018-01-22T13:00:30.598Z,2.90
2018-01-22T13:02:58.098Z,3.00
2018-01-22T13:05:25.565Z,3.00
2018-01-22T13:07:53.082Z,3.00
2018-01-22T13:10:21.127Z,3.00
2018-01-22T13:12:48.737Z,3.00
2018-01-22T13:15:20.230Z,3.00
2018-01-22T13:17:47.921Z,3.00
2018-01-22T13:20:16.904Z,3.10
2018-01-22T13:22:44.684Z,3.10
2018-01-22T13:25:13.961Z,3.20
2018-01-22T13:27:48.893Z,3.20
2018-01-22T13:30:17.635Z,3.20
2018-01-22T13:32:48.048Z,3.20
2018-01-22T13:35:16.234Z,3.20
2018-01-22T13:37:43.794Z,3.20
2018-01-22T13:40:18.039Z,3.20
2018-01-22T13:42:45.604Z,3.30
2018-01-22T13:45:14.538Z,3.30
2018-01-22T13:47:53.355Z,3.30
2018-01-22T13:50:23.051Z,3.30
2018-01-22T14:11:28.449Z,3.30
2018-01-22T14:14:08.891Z,3.20
2018-01-22T14:16:55.273Z,3.30
2018-01-22T14:19:30.359Z,3.30
2018-01-22T14:22:26.606Z,3.30
2018-01-22T14:33:49.651Z,3.40
2018-01-22T14:36:32.427Z,3.40
2018-01-22T14:48:03.530Z,3.40
2018-01-22T14:50:42.270Z,3.50
2018-01-22T15:07:46.109Z,3.60
2018-01-22T15:21:16.414Z,3.60
2018-01-22T15:38:43.336Z,3.50
2018-01-22T15:41:37.947Z,3.50
2018-01-22T15:44:13.318Z,3.60
2018-01-22T15:47:03.529Z,3.60
2018-01-22T15:49:46.066Z,3.60
2018-01-22T15:52:28.928Z,3.70
2018-01-22T15:54:57.508Z,3.70
2018-01-22T15:57:28.980Z,3.80
2018-01-22T16:00:01.852Z,3.70
2018-01-22T16:05:15.903Z,3.80
2018-01-22T16:07:59.471Z,3.80
2018-01-22T16:10:38.271Z,3.80
2018-01-22T16:13:12.653Z,3.90
2018-01-22T16:15:51.103Z,3.80
2018-01-22T16:18:31.453Z,3.90
2018-01-22T16:21:07.341Z,3.90
2018-01-22T16:23:41.083Z,3.90
2018-01-22T16:29:08.179Z,3.90
2018-01-22T16:31:45.478Z,3.80
2018-01-22T16:34:20.461Z,3.90
2018-01-22T16:50:49.786Z,4.00
2018-01-22T16:53:23.010Z,4.00
2018-01-22T16:55:53.362Z,4.00
2018-01-22T16:58:25.047Z,4.00
2018-01-22T17:00:57.829Z,4.00
2018-01-22T17:03:29.078Z,4.10
2018-01-22T17:06:01.792Z,4.10
2018-01-22T17:08:39.482Z,4.10
2018-01-22T17:11:13.520Z,4.10
2018-01-22T17:13:48.013Z,4.20
2018-01-22T17:16:20.231Z,4.30
2018-01-22T17:18:54.181Z,4.30
2018-01-22T17:21:31.226Z,4.30
2018-01-22T17:24:02.632Z,4.20
2018-01-22T17:26:37.697Z,4.20
2018-01-22T17:29:11.034Z,4.20
2018-01-22T17:31:39.826Z,4.20
2018-01-22T17:34:14.136Z,4.20
2018-01-22T17:36:41.890Z,4.20
2018-01-22T17:39:09.453Z,4.30
2018-01-22T17:41:36.922Z,4.30
2018-01-22T17:44:04.369Z,4.30
2018-01-22T17:46:31.822Z,4.20
2018-01-22T17:48:59.295Z,4.10
2018-01-22T17:51:26.748Z,4.00
2018-01-22T17:53:54.207Z,4.00
2018-01-22T17:56:21.668Z,4.10
2018-01-22T17:58:49.139Z,4.10
2018-01-22T18:01:16.633Z,4.20
2018-01-22T18:03:44.880Z,4.20
2018-01-22T18:06:12.364Z,4.20
2018-01-22T18:08:39.938Z,4.20
2018-01-22T18:11:07.464Z,4.20
2018-01-22T18:13:34.922Z,4.20
2018-01-22T18:16:02.433Z,4.20
2018-01-22T18:18:30.276Z,4.30
2018-01-22T18:20:57.802Z,4.30
2018-01-22T18:23:25.373Z,4.30
2018-01-22T18:25:52.877Z,4.40
2018-01-22T18:28:20.538Z,4.40
2018-01-22T18:30:48.173Z,4.40
2018-01-22T18:33:15.750Z,4.40
2018-01-22T18:35:43.753Z,4.50
2018-01-22T18:38:11.367Z,4.50
2018-01-22T18:40:38.987Z,4.50
2018-01-22T18:43:06.772Z,4.60
2018-01-22T18:45:37.543Z,4.60
2018-01-22T18:48:05.160Z,4.60
2018-01-22T18:50:32.824Z,4.60
2018-01-22T18:53:01.875Z,4.60
2018-01-22T18:55:30.508Z,4.60
2018-01-22T18:57:58.282Z,4.70
2018-01-22T19:00:27.650Z,4.70
2018-01-22T19:02:56.089Z,4.70
2018-01-22T19:05:24.979Z,4.70
2018-01-22T19:07:52.600Z,4.80
2018-01-22T19:10:23.168Z,4.80
2018-01-22T19:12:51.236Z,4.80
2018-01-22T19:15:22.268Z,4.80
2018-01-22T19:17:52.141Z,4.80
2018-01-22T19:20:27.520Z,4.90
2018-01-22T19:22:59.650Z,4.90
2018-01-22T19:25:27.591Z,4.90
2018-01-22T19:27:57.791Z,4.90
2018-01-22T19:30:26.801Z,4.90
2018-01-22T19:32:54.783Z,4.90
2018-01-22T19:35:24.171Z,4.90
2018-01-22T19:37:52.203Z,4.90
2018-01-22T19:40:19.985Z,4.90
2018-01-22T19:42:50.254Z,4.90
2018-01-22T19:45:24.411Z,4.90
2018-01-22T19:47:59.317Z,4.90
2018-01-22T19:53:22.718Z,4.90
2018-01-22T19:56:01.400Z,4.90
2018-01-22T20:33:37.900Z,4.50
2018-01-22T20:36:06.527Z,4.50
2018-01-22T20:38:34.338Z,4.50
2018-01-22T20:41:11.956Z,4.50
2018-01-22T20:55:30.960Z,4.60
2018-01-22T20:58:00.596Z,4.60
2018-01-22T21:03:15.134Z,4.70
2018-01-22T21:05:47.078Z,4.70
2018-01-22T21:08:15.158Z,4.70
2018-01-22T21:10:43.410Z,4.70
2018-01-22T21:13:16.106Z,4.70
2018-01-22T21:16:02.415Z,4.70
2018-01-22T21:18:30.521Z,4.70
2018-01-22T21:21:01.913Z,4.70
2018-01-22T21:23:30.770Z,4.70
2018-01-22T21:25:58.421Z,4.70
2018-01-22T21:28:26.214Z,4.80
2018-01-22T21:30:53.894Z,4.80
2018-01-22T21:33:21.563Z,4.80
2018-01-22T21:35:50.172Z,4.80
2018-01-22T21:38:17.807Z,4.90
2018-01-22T21:40:45.424Z,4.90
2018-01-22T22:21:07.627Z,4.40
2018-01-22T22:23:36.436Z,4.50
2018-01-22T22:26:12.345Z,4.50
2018-01-22T22:28:40.864Z,4.60
2018-01-22T22:31:22.168Z,4.60
2018-01-22T22:33:59.126Z,4.70
2018-01-22T22:36:30.846Z,4.70
2018-01-22T22:39:15.968Z,4.70
2018-01-22T22:41:47.746Z,4.70
2018-01-22T22:45:00.866Z,4.80
2018-01-22T22:47:31.957Z,4.80
2018-01-22T22:52:56.571Z,4.80
2018-01-22T22:55:29.689Z,4.80
2018-01-22T22:57:58.181Z,4.90
2018-01-22T23:00:28.037Z,4.90
2018-01-22T23:02:59.288Z,4.90
2018-01-22T23:05:33.015Z,4.90
2018-01-22T23:11:12.582Z,4.90
2018-01-22T23:13:40.612Z,4.90
2018-01-22T23:16:08.156Z,4.90
2018-01-22T23:18:35.866Z,4.90
2018-01-22T23:21:03.504Z,5.00
2018-01-22T23:23:31.085Z,4.90
2018-01-22T23:25:58.724Z,4.90
2018-01-22T23:28:26.285Z,4.90
2018-01-22T23:30:53.948Z,4.80
2018-01-22T23:33:21.516Z,4.80
2018-01-22T23:35:49.860Z,4.80
2018-01-22T23:38:17.476Z,4.80
2018-01-22T23:40:45.050Z,4.90
2018-01-22T23:43:13.227Z,4.90
2018-01-22T23:45:40.815Z,4.90
2018-01-22T23:48:08.432Z,4.90
2018-01-22T23:50:35.995Z,5.00
2018-01-22T23:53:03.604Z,5.00
2018-01-22T23:55:31.233Z,5.00
